Research Triangle Park, North Carolina
Current Conditions -  °F | °C
As of 10:51 AM on Wednesday 22 Oct 2014 (Local Time) from KRDU Reporting Station
Scattered Clouds Scattered Clouds  
Wind Chill: 15°   Ceiling: Unl
Heat Index: 15°   Visibility: 10mi
Dew Point:   Wind: 9mph
Humidity: 49%   Direction: 330°NNW
Pressure: 30"   Gusts: 21mph
Location:  35.9144°N, 78.8655°W
Report Text: KRDU 221451Z 33008G18KT 290V350 10SM FEW050 SCT070 15/04 A3000 RMK AO2 SLP157 T01500044 51011 $
Loading
Personal Weather Stations






























Interactive Weather Map
Tropical Storm Tracking
New forecast layout! Learn more

10-Day Weather Forecast

Advertisements
Track Severe Weather on mobile